Time;durP1;ratioP1;P1;durP2;ratioP2;P2;SDS_P1;SDS_P2;PMS_P1;PMS_P2;Temp;Humidity;BMP_temperature;BMP_pressure;BME280_temperature;BME280_humidity;BME280_pressure;Samples;Min_cycle;Max_cycle;Signal;HPM_P1;HPM_P2
2023/07/12 00:01:35;;;;;;;6.38;2.53;;;20.40;99.90;;;;;;4973791;28;20424;-64
2023/07/12 00:04:01;;;;;;;4.57;2.47;;;20.40;99.90;;;;;;5006913;28;20412;-67
2023/07/12 00:06:37;;;;;;;4.73;2.60;;;20.40;99.90;;;;;;5014373;28;20405;-64
2023/07/12 00:09:11;;;;;;;5.18;2.90;;;20.40;99.90;;;;;;4989643;28;20957;-66
2023/07/12 00:11:37;;;;;;;4.80;2.40;;;20.40;99.90;;;;;;4999238;28;20421;-65
2023/07/12 00:14:02;;;;;;;5.30;2.90;;;20.30;99.90;;;;;;5006631;28;20762;-65
2023/07/12 00:16:34;;;;;;;3.97;2.60;;;20.30;99.90;;;;;;4989366;28;20428;-66
2023/07/12 00:18:59;;;;;;;5.00;2.50;;;20.30;99.90;;;;;;5006263;28;20473;-66
2023/07/12 00:21:28;;;;;;;4.57;2.58;;;20.30;99.90;;;;;;5006532;28;20805;-66
2023/07/12 00:23:56;;;;;;;5.55;2.58;;;20.30;99.90;;;;;;4987885;28;20420;-65
2023/07/12 00:26:29;;;;;;;4.03;2.50;;;20.30;99.90;;;;;;4999228;28;20898;-65
2023/07/12 00:28:56;;;;;;;4.88;2.90;;;20.30;99.90;;;;;;4985375;28;20397;-65
2023/07/12 00:31:22;;;;;;;4.37;2.57;;;20.30;99.90;;;;;;4987965;28;20466;-65
2023/07/12 00:33:48;;;;;;;5.20;2.60;;;20.30;99.90;;;;;;5014772;28;20413;-65
2023/07/12 00:36:18;;;;;;;4.38;2.83;;;20.30;99.90;;;;;;5006268;28;20413;-65
2023/07/12 00:38:44;;;;;;;5.13;2.63;;;20.30;99.90;;;;;;5006279;28;20401;-66
2023/07/12 00:41:14;;;;;;;5.03;3.10;;;20.20;99.90;;;;;;4973040;28;20820;-65
2023/07/12 00:44:02;;;;;;;5.43;2.88;;;20.20;99.90;;;;;;4997552;28;20520;-65
2023/07/12 00:46:35;;;;;;;4.57;2.70;;;20.20;99.90;;;;;;4998674;28;20401;-65
2023/07/12 00:49:01;;;;;;;4.43;2.50;;;20.20;99.90;;;;;;4988365;28;20910;-65
2023/07/12 00:51:59;;;;;;;4.90;2.80;;;20.10;99.90;;;;;;5008210;28;20424;-65
2023/07/12 00:54:46;;;;;;;5.40;2.78;;;20.10;99.90;;;;;;5006782;28;20937;-65
2023/07/12 00:57:11;;;;;;;4.80;2.80;;;20.10;99.90;;;;;;5005642;28;20470;-66
2023/07/12 00:59:37;;;;;;;4.07;2.78;;;20.10;99.90;;;;;;5006262;28;20763;-65
2023/07/12 01:02:03;;;;;;;5.55;2.85;;;20.00;99.90;;;;;;5005572;28;20425;-65
2023/07/12 01:04:36;;;;;;;3.90;2.78;;;20.00;99.90;;;;;;5012703;28;20428;-65
2023/07/12 01:07:02;;;;;;;5.03;2.72;;;20.00;99.90;;;;;;5002296;28;20418;-65
2023/07/12 01:09:28;;;;;;;4.97;2.90;;;20.00;99.90;;;;;;4987747;28;20987;-65
2023/07/12 01:11:54;;;;;;;5.45;3.30;;;19.90;99.90;;;;;;4988674;28;20417;-65
2023/07/12 01:14:20;;;;;;;4.53;2.83;;;19.90;99.90;;;;;;5005238;28;20822;-65
2023/07/12 01:16:53;;;;;;;6.32;2.90;;;19.90;99.90;;;;;;5004428;28;20509;-65
2023/07/12 01:19:19;;;;;;;5.97;3.00;;;19.80;99.90;;;;;;5010093;28;20412;-65
2023/07/12 01:21:47;;;;;;;6.15;2.97;;;19.80;99.90;;;;;;4988245;28;20932;-65
2023/07/12 01:24:14;;;;;;;5.90;3.13;;;19.70;99.90;;;;;;4979132;28;20426;-64
2023/07/12 01:26:44;;;;;;;5.03;3.03;;;19.70;99.90;;;;;;5006148;28;20410;-65
2023/07/12 01:29:10;;;;;;;6.13;3.50;;;19.70;99.90;;;;;;4999098;28;20933;-65
2023/07/12 01:31:37;;;;;;;4.95;3.30;;;19.70;99.90;;;;;;5007692;28;20413;-65
2023/07/12 01:34:03;;;;;;;7.07;3.15;;;19.70;99.90;;;;;;5006141;28;20460;-65
2023/07/12 01:36:31;;;;;;;5.22;3.17;;;19.70;99.90;;;;;;4991682;28;20456;-65
2023/07/12 01:38:58;;;;;;;5.93;3.03;;;19.60;99.90;;;;;;5008877;28;20758;-65
2023/07/12 01:41:24;;;;;;;5.95;3.25;;;19.60;99.90;;;;;;5003111;28;20779;-65
2023/07/12 01:43:51;;;;;;;5.68;3.10;;;19.60;99.90;;;;;;5008261;28;20963;-65
2023/07/12 01:46:17;;;;;;;5.32;3.22;;;19.50;99.90;;;;;;5023241;28;20411;-65
2023/07/12 01:48:44;;;;;;;5.97;3.20;;;19.50;99.90;;;;;;5008451;28;20412;-65
2023/07/12 01:51:10;;;;;;;6.45;3.20;;;19.50;99.90;;;;;;5008790;28;20397;-65
2023/07/12 01:53:36;;;;;;;6.00;3.30;;;19.50;99.90;;;;;;5007936;28;20462;-65
2023/07/12 01:56:04;;;;;;;5.13;3.20;;;19.40;99.90;;;;;;5005215;28;20414;-65
2023/07/12 01:58:30;;;;;;;5.65;3.08;;;19.40;99.90;;;;;;5008972;28;20454;-65
2023/07/12 02:00:56;;;;;;;6.90;3.60;;;19.30;99.90;;;;;;5008498;28;20408;-65
2023/07/12 02:03:22;;;;;;;7.80;3.28;;;19.20;99.90;;;;;;4997190;28;20734;-65
2023/07/12 02:05:48;;;;;;;5.97;3.40;;;19.30;99.90;;;;;;5000795;28;21108;-65
2023/07/12 02:08:14;;;;;;;5.63;3.42;;;19.20;99.90;;;;;;5008316;28;20461;-65
2023/07/12 02:10:40;;;;;;;5.57;3.22;;;19.10;99.90;;;;;;5008563;28;20393;-65
2023/07/12 02:13:06;;;;;;;8.20;3.72;;;19.10;99.90;;;;;;4990684;28;20424;-65
2023/07/12 02:15:32;;;;;;;7.00;3.80;;;19.00;99.90;;;;;;5007220;28;20405;-65
2023/07/12 02:17:57;;;;;;;6.78;3.90;;;19.00;99.90;;;;;;5010878;28;20438;-65
2023/07/12 02:20:23;;;;;;;9.38;4.50;;;19.00;99.90;;;;;;4991044;28;20511;-65
2023/07/12 02:22:49;;;;;;;8.65;4.82;;;18.90;99.90;;;;;;5007195;28;20429;-65
2023/07/12 02:25:16;;;;;;;8.07;4.70;;;18.90;99.90;;;;;;5007503;28;20454;-64
2023/07/12 02:27:44;;;;;;;8.52;4.47;;;18.90;99.90;;;;;;5040021;28;20512;-65
2023/07/12 02:30:19;;;;;;;9.00;4.88;;;18.90;99.90;;;;;;4986011;28;20454;-65
2023/07/12 02:32:45;;;;;;;10.15;4.70;;;18.90;99.90;;;;;;5079542;28;20420;-65
2023/07/12 02:35:11;;;;;;;9.10;4.63;;;18.80;99.90;;;;;;4974182;28;20710;-65
2023/07/12 02:37:37;;;;;;;9.43;4.72;;;18.80;99.90;;;;;;4995904;28;20427;-65
2023/07/12 02:40:05;;;;;;;7.78;4.22;;;18.80;99.90;;;;;;5004895;28;20897;-65
2023/07/12 02:42:31;;;;;;;7.65;4.40;;;18.80;99.90;;;;;;5009449;28;20456;-65
2023/07/12 02:44:57;;;;;;;10.32;4.68;;;18.70;99.90;;;;;;5010628;28;20435;-65
2023/07/12 02:47:23;;;;;;;10.68;4.10;;;18.70;99.90;;;;;;5007963;28;20842;-65
2023/07/12 02:49:48;;;;;;;10.93;4.28;;;18.70;99.90;;;;;;5008002;28;20453;-65
2023/07/12 02:52:15;;;;;;;11.15;4.43;;;18.70;99.90;;;;;;5008064;28;20490;-65
2023/07/12 02:54:41;;;;;;;9.40;4.05;;;18.70;99.90;;;;;;5009314;28;20415;-65
2023/07/12 02:57:10;;;;;;;10.93;4.23;;;18.60;99.90;;;;;;5010037;28;20447;-65
2023/07/12 02:59:36;;;;;;;8.98;4.03;;;18.70;99.90;;;;;;5002042;28;20484;-66
2023/07/12 03:02:03;;;;;;;9.57;3.88;;;18.60;99.90;;;;;;5057833;28;20439;-66
2023/07/12 03:04:29;;;;;;;11.90;4.50;;;18.70;99.90;;;;;;5003231;28;20492;-66
2023/07/12 03:06:55;;;;;;;10.23;4.40;;;18.70;99.90;;;;;;5009395;28;20937;-66
2023/07/12 03:09:21;;;;;;;10.13;4.43;;;18.70;99.90;;;;;;4990220;28;20439;-66
2023/07/12 03:11:47;;;;;;;9.10;4.23;;;18.60;99.90;;;;;;5056527;28;20900;-65
2023/07/12 03:14:15;;;;;;;9.80;4.18;;;18.60;99.90;;;;;;4996689;28;20931;-66
2023/07/12 03:16:41;;;;;;;9.68;4.40;;;18.50;99.90;;;;;;5008459;28;20409;-66
2023/07/12 03:19:07;;;;;;;9.88;4.50;;;18.50;99.90;;;;;;4988955;28;20428;-66
2023/07/12 03:21:32;;;;;;;11.70;4.67;;;18.50;99.90;;;;;;5007546;28;20397;-66
2023/07/12 03:23:58;;;;;;;12.73;4.83;;;18.50;99.90;;;;;;4989378;28;20454;-66
2023/07/12 03:26:23;;;;;;;10.52;4.65;;;18.40;99.90;;;;;;4991668;28;20768;-65
2023/07/12 03:28:49;;;;;;;12.15;4.50;;;18.40;99.90;;;;;;4995728;28;20421;-66
2023/07/12 03:31:16;;;;;;;12.17;4.47;;;18.30;99.90;;;;;;5006310;28;20412;-66
2023/07/12 03:33:44;;;;;;;10.70;4.50;;;18.40;99.90;;;;;;4990688;28;20413;-66
2023/07/12 03:36:10;;;;;;;9.82;5.00;;;18.30;99.90;;;;;;5009335;28;20401;-66
2023/07/12 03:38:36;;;;;;;10.10;4.78;;;18.30;99.90;;;;;;4993216;28;20426;-66
2023/07/12 03:41:04;;;;;;;10.05;4.82;;;18.30;99.90;;;;;;5004920;28;20492;-66
2023/07/12 03:43:31;;;;;;;9.20;4.40;;;18.30;99.90;;;;;;4991326;28;20463;-66
2023/07/12 03:45:56;;;;;;;10.57;4.70;;;18.30;99.90;;;;;;4993550;28;20421;-66
2023/07/12 03:48:23;;;;;;;9.97;4.47;;;18.30;99.90;;;;;;5009999;28;20404;-66
2023/07/12 03:50:50;;;;;;;9.83;4.60;;;18.30;99.90;;;;;;5007449;28;20412;-66
2023/07/12 03:53:16;;;;;;;11.15;4.63;;;18.20;99.90;;;;;;5006419;28;20828;-66
2023/07/12 03:55:44;;;;;;;9.20;4.35;;;18.30;99.90;;;;;;5074643;28;20929;-66
2023/07/12 03:58:12;;;;;;;11.70;4.50;;;18.30;99.90;;;;;;5005356;28;20416;-66
2023/07/12 04:00:41;;;;;;;11.38;4.80;;;18.30;99.90;;;;;;4986223;28;20789;-66
2023/07/12 04:03:07;;;;;;;12.43;4.83;;;18.30;99.90;;;;;;4990695;28;20539;-66
2023/07/12 04:05:40;;;;;;;10.40;4.90;;;18.20;99.90;;;;;;5008409;28;20985;-65
2023/07/12 04:08:06;;;;;;;10.45;4.45;;;18.20;99.90;;;;;;5008685;28;20424;-64
2023/07/12 04:10:33;;;;;;;11.00;5.17;;;18.20;99.90;;;;;;5007443;28;20412;-66
2023/07/12 04:12:59;;;;;;;11.43;4.90;;;18.10;99.90;;;;;;4992286;28;21020;-65
2023/07/12 04:15:25;;;;;;;12.00;5.05;;;18.10;99.90;;;;;;5006785;28;20419;-65
2023/07/12 04:17:50;;;;;;;11.43;5.03;;;18.20;99.90;;;;;;4989229;28;20505;-65
2023/07/12 04:20:16;;;;;;;12.55;5.22;;;18.20;99.90;;;;;;5014104;28;20403;-65
2023/07/12 04:22:42;;;;;;;11.63;4.50;;;18.20;99.90;;;;;;5006539;28;20417;-66
2023/07/12 04:25:09;;;;;;;9.93;4.65;;;18.20;99.90;;;;;;4988606;28;20928;-66
2023/07/12 04:27:37;;;;;;;11.15;5.10;;;18.20;99.90;;;;;;5006270;28;20397;-65
2023/07/12 04:30:07;;;;;;;12.70;5.05;;;18.20;99.90;;;;;;5063688;28;20848;-65
2023/07/12 04:32:33;;;;;;;9.40;4.77;;;18.20;99.90;;;;;;4999238;28;20505;-65
2023/07/12 04:34:59;;;;;;;10.05;5.07;;;18.20;99.90;;;;;;5008047;28;20493;-66
2023/07/12 04:37:25;;;;;;;11.15;4.55;;;18.20;99.90;;;;;;5006699;28;20405;-65
2023/07/12 04:39:51;;;;;;;11.07;4.87;;;18.20;99.90;;;;;;4972970;28;20465;-64
2023/07/12 04:42:17;;;;;;;10.25;4.90;;;18.20;99.90;;;;;;5008624;28;20780;-65
2023/07/12 04:44:42;;;;;;;12.30;4.82;;;18.20;99.90;;;;;;4997533;28;20462;-66
2023/07/12 04:47:08;;;;;;;11.73;4.60;;;18.10;99.90;;;;;;5006029;28;20941;-65
2023/07/12 04:49:34;;;;;;;13.20;4.97;;;18.10;99.90;;;;;;5006478;28;20401;-65
2023/07/12 04:51:59;;;;;;;12.20;5.07;;;18.10;99.90;;;;;;4989616;28;20425;-65
2023/07/12 04:54:26;;;;;;;11.43;4.80;;;18.00;99.90;;;;;;5004567;28;20509;-65
2023/07/12 04:56:51;;;;;;;10.68;4.40;;;18.00;99.90;;;;;;5002508;28;20416;-66
2023/07/12 04:59:18;;;;;;;13.23;4.93;;;18.00;99.90;;;;;;5001765;28;20428;-65
2023/07/12 05:01:44;;;;;;;13.55;5.03;;;18.00;99.90;;;;;;5001059;28;20412;-66
2023/07/12 05:04:10;;;;;;;11.27;4.55;;;18.00;99.90;;;;;;4989280;28;20413;-65
2023/07/12 05:06:35;;;;;;;10.32;4.70;;;18.00;99.90;;;;;;5009743;28;20397;-65
2023/07/12 05:09:01;;;;;;;15.13;5.07;;;18.00;99.90;;;;;;5007142;28;20477;-65
2023/07/12 05:11:27;;;;;;;13.38;5.65;;;18.00;99.90;;;;;;4992206;28;20412;-65
2023/07/12 05:13:52;;;;;;;11.70;5.22;;;18.10;99.90;;;;;;5003198;28;20957;-66
2023/07/12 05:16:18;;;;;;;11.53;5.33;;;18.10;99.90;;;;;;4993589;28;20503;-65
2023/07/12 05:18:44;;;;;;;16.00;5.57;;;18.10;99.90;;;;;;4992222;28;20396;-65
2023/07/12 05:21:09;;;;;;;12.57;5.53;;;18.00;99.90;;;;;;5001659;28;20759;-66
2023/07/12 05:23:36;;;;;;;14.50;5.13;;;18.00;99.90;;;;;;4991402;28;20525;-66
2023/07/12 05:26:03;;;;;;;13.95;5.38;;;18.00;99.90;;;;;;5006079;28;20832;-65
2023/07/12 05:28:28;;;;;;;13.52;5.07;;;18.00;99.90;;;;;;5009368;28;20419;-65
2023/07/12 05:30:54;;;;;;;12.37;5.40;;;18.00;99.90;;;;;;4991344;28;20416;-65
2023/07/12 05:33:19;;;;;;;14.32;5.10;;;18.10;99.90;;;;;;5007571;28;20920;-65
2023/07/12 05:35:48;;;;;;;14.55;5.72;;;18.00;99.90;;;;;;5004712;28;20410;-65
2023/07/12 05:38:14;;;;;;;14.23;5.65;;;18.10;99.90;;;;;;4990144;28;20416;-66
2023/07/12 05:40:39;;;;;;;14.80;5.77;;;18.10;99.90;;;;;;5009145;28;21089;-65
2023/07/12 05:43:05;;;;;;;15.87;5.90;;;18.10;99.90;;;;;;4992844;28;20428;-66
2023/07/12 05:45:31;;;;;;;16.75;6.53;;;18.10;99.90;;;;;;4990988;28;20409;-65
2023/07/12 05:47:56;;;;;;;15.52;6.85;;;18.10;99.90;;;;;;5008650;28;20405;-63
2023/07/12 05:50:22;;;;;;;16.83;6.80;;;18.30;99.90;;;;;;4991632;28;20405;-66
2023/07/12 05:52:48;;;;;;;15.63;6.67;;;18.20;99.90;;;;;;4991438;28;20444;-66
2023/07/12 05:55:20;;;;;;;17.70;7.20;;;18.20;99.90;;;;;;5007094;28;20500;-65
2023/07/12 05:57:46;;;;;;;18.40;8.00;;;18.20;99.90;;;;;;5076217;28;20815;-65
2023/07/12 06:00:13;;;;;;;16.42;7.32;;;18.20;99.90;;;;;;4987422;28;20787;-66
2023/07/12 06:02:38;;;;;;;17.43;8.43;;;18.20;99.90;;;;;;4989947;28;20476;-65
2023/07/12 06:05:06;;;;;;;17.43;8.17;;;18.20;99.90;;;;;;5004199;28;20859;-65
2023/07/12 06:07:32;;;;;;;14.13;8.13;;;18.30;99.90;;;;;;4990091;28;20473;-65
2023/07/12 06:09:57;;;;;;;17.33;8.48;;;18.30;99.90;;;;;;5001979;28;20896;-65
2023/07/12 06:12:24;;;;;;;17.77;8.85;;;18.30;99.90;;;;;;5001288;28;20448;-65
2023/07/12 06:14:50;;;;;;;17.45;8.77;;;18.30;99.90;;;;;;5004615;28;20431;-65
2023/07/12 06:17:16;;;;;;;16.13;9.23;;;18.30;99.90;;;;;;5007313;28;20405;-64
2023/07/12 06:19:41;;;;;;;19.13;9.60;;;18.30;99.90;;;;;;4972670;28;20864;-64
2023/07/12 06:22:07;;;;;;;18.33;9.57;;;18.30;99.90;;;;;;5007631;28;20485;-65
2023/07/12 06:24:32;;;;;;;17.83;10.02;;;18.30;99.90;;;;;;5001300;28;20417;-65
2023/07/12 06:26:58;;;;;;;17.67;9.32;;;18.40;99.90;;;;;;5007089;28;20786;-65
2023/07/12 06:29:25;;;;;;;18.70;9.93;;;18.40;99.90;;;;;;5006922;28;20762;-65
2023/07/12 06:31:51;;;;;;;16.00;9.23;;;18.40;99.90;;;;;;4988726;28;20427;-65
2023/07/12 06:34:17;;;;;;;18.73;9.23;;;18.40;99.90;;;;;;5005744;28;20820;-66
2023/07/12 06:36:42;;;;;;;16.10;8.93;;;18.50;99.90;;;;;;5009659;28;20417;-65
2023/07/12 06:39:08;;;;;;;16.17;9.33;;;18.50;99.90;;;;;;5007234;28;20397;-64
2023/07/12 06:41:34;;;;;;;17.93;9.17;;;18.50;99.90;;;;;;4995478;28;20425;-63
2023/07/12 06:43:59;;;;;;;17.07;8.70;;;18.50;99.90;;;;;;5003298;28;20421;-65
2023/07/12 06:46:25;;;;;;;16.70;8.48;;;18.50;99.90;;;;;;5004440;28;20473;-65
2023/07/12 06:48:51;;;;;;;17.23;7.97;;;18.50;99.90;;;;;;5003722;28;20404;-65
2023/07/12 06:51:16;;;;;;;15.23;7.57;;;18.50;99.90;;;;;;5006327;28;20478;-65
2023/07/12 06:53:42;;;;;;;17.37;8.17;;;18.60;99.90;;;;;;5005274;28;20512;-63
2023/07/12 06:56:08;;;;;;;15.70;7.82;;;18.60;99.90;;;;;;4989504;28;20437;-65
2023/07/12 06:58:34;;;;;;;15.50;8.00;;;18.60;99.90;;;;;;5006043;28;20829;-65
2023/07/12 07:00:59;;;;;;;15.30;8.10;;;18.60;99.90;;;;;;4943855;28;1795469;-66
2023/07/12 07:03:25;;;;;;;16.38;7.85;;;18.60;99.90;;;;;;5006466;28;20436;-65
2023/07/12 07:05:51;;;;;;;20.35;8.43;;;18.60;99.90;;;;;;4987440;28;20446;-64
2023/07/12 07:08:19;;;;;;;17.48;8.23;;;18.60;99.90;;;;;;5006606;28;20420;-65
2023/07/12 07:10:50;;;;;;;15.55;7.50;;;18.60;99.90;;;;;;5075930;28;20998;-64
2023/07/12 07:13:15;;;;;;;17.17;7.60;;;18.60;99.90;;;;;;4990265;28;20442;-64
2023/07/12 07:15:43;;;;;;;15.10;7.17;;;18.70;99.90;;;;;;5007083;28;20484;-64
2023/07/12 07:18:10;;;;;;;15.20;7.10;;;18.70;99.90;;;;;;4997063;28;20437;-64
2023/07/12 07:20:35;;;;;;;18.38;7.07;;;18.80;99.90;;;;;;4999921;28;21173;-64
2023/07/12 07:23:01;;;;;;;16.60;6.80;;;18.70;99.90;;;;;;4985234;28;20847;-64
2023/07/12 07:25:28;;;;;;;16.03;7.20;;;18.80;99.90;;;;;;5003877;28;20428;-65
2023/07/12 07:27:54;;;;;;;15.57;6.93;;;18.80;99.90;;;;;;5006304;28;20928;-64
2023/07/12 07:30:20;;;;;;;12.13;6.60;;;18.80;99.90;;;;;;4984898;28;20432;-64
2023/07/12 07:32:46;;;;;;;15.57;7.07;;;18.80;99.90;;;;;;5002240;28;20428;-63
2023/07/12 07:35:13;;;;;;;18.42;7.10;;;18.80;99.90;;;;;;5002731;28;20409;-64
2023/07/12 07:37:39;;;;;;;17.60;7.22;;;18.40;99.90;;;;;;5001926;28;20420;-64
2023/07/12 07:40:07;;;;;;;14.93;6.50;;;18.80;99.90;;;;;;4988908;28;20429;-65
2023/07/12 07:42:32;;;;;;;13.50;6.85;;;18.80;99.90;;;;;;5009587;28;20482;-64
2023/07/12 07:44:58;;;;;;;16.17;6.95;;;18.90;99.90;;;;;;5001889;28;20421;-62
2023/07/12 07:47:24;;;;;;;16.20;6.30;;;18.90;99.90;;;;;;5005137;28;20405;-65
2023/07/12 07:49:49;;;;;;;13.52;6.15;;;19.00;99.90;;;;;;4989172;28;20405;-65
2023/07/12 07:52:15;;;;;;;14.27;6.20;;;19.00;99.90;;;;;;4989107;28;20930;-64
2023/07/12 07:54:41;;;;;;;11.80;5.93;;;19.10;99.90;;;;;;4989086;28;20409;-65
2023/07/12 07:57:07;;;;;;;13.95;6.40;;;19.10;99.90;;;;;;5007111;28;20397;-64
2023/07/12 07:59:33;;;;;;;11.23;6.13;;;19.20;99.90;;;;;;4989249;28;20413;-65
2023/07/12 08:01:59;;;;;;;14.13;6.40;;;19.20;99.90;;;;;;5006634;28;20985;-65
2023/07/12 08:04:24;;;;;;;12.47;5.67;;;19.30;99.90;;;;;;4988372;28;20462;-63
2023/07/12 08:06:50;;;;;;;13.02;6.03;;;19.40;99.90;;;;;;5002695;28;20417;-64
2023/07/12 08:09:16;;;;;;;16.08;6.60;;;19.40;99.90;;;;;;5003739;28;20946;-65
2023/07/12 08:11:42;;;;;;;14.82;6.30;;;19.40;99.90;;;;;;5003180;28;20430;-65
2023/07/12 08:14:08;;;;;;;12.93;5.60;;;19.50;99.90;;;;;;4989205;28;20500;-65
2023/07/12 08:16:36;;;;;;;14.17;6.10;;;19.60;99.90;;;;;;4989758;28;20519;-65
2023/07/12 08:19:04;;;;;;;11.75;5.50;;;19.70;99.90;;;;;;5004421;28;20421;-62
2023/07/12 08:21:30;;;;;;;13.43;6.10;;;19.80;99.90;;;;;;4976276;28;20806;-65
2023/07/12 08:23:57;;;;;;;13.70;5.70;;;19.70;99.90;;;;;;5006014;28;20821;-65
2023/07/12 08:26:22;;;;;;;15.25;6.15;;;19.70;99.90;;;;;;5005094;28;20420;-65
2023/07/12 08:28:48;;;;;;;15.30;5.57;;;19.80;99.90;;;;;;5003251;28;20416;-64
2023/07/12 08:31:15;;;;;;;13.23;5.70;;;20.00;99.90;;;;;;5005667;28;20425;-65
2023/07/12 08:33:41;;;;;;;12.47;5.70;;;20.10;99.90;;;;;;5005333;28;20528;-65
2023/07/12 08:36:07;;;;;;;13.65;5.68;;;20.10;99.90;;;;;;4979817;28;20497;-64
2023/07/12 08:38:33;;;;;;;12.03;5.57;;;20.00;99.90;;;;;;4985595;28;20440;-62
2023/07/12 08:40:59;;;;;;;11.90;5.70;;;20.00;99.90;;;;;;5006197;28;20429;-65
2023/07/12 08:43:32;;;;;;;14.20;5.50;;;19.90;99.90;;;;;;4990018;28;20504;-65
2023/07/12 08:46:11;;;;;;;12.40;5.68;;;19.90;99.90;;;;;;4989363;28;20930;-65
2023/07/12 08:48:37;;;;;;;14.73;6.63;;;19.80;99.90;;;;;;4989310;28;20930;-65
2023/07/12 08:51:19;;;;;;;16.58;6.20;;;19.80;99.90;;;;;;4999529;28;20417;-66
2023/07/12 08:53:45;;;;;;;13.63;6.10;;;19.80;99.90;;;;;;5006106;28;20930;-65
2023/07/12 08:56:18;;;;;;;15.15;6.75;;;19.70;99.90;;;;;;5005754;28;20736;-65
2023/07/12 08:58:52;;;;;;;15.25;6.90;;;19.70;99.90;;;;;;5006323;28;20400;-65
2023/07/12 09:01:41;;;;;;;14.60;6.70;;;19.60;99.90;;;;;;4985357;28;20496;-65
2023/07/12 09:04:28;;;;;;;14.50;7.05;;;19.60;99.90;;;;;;4984903;28;20458;-64
2023/07/12 09:06:56;;;;;;;15.05;7.00;;;19.50;99.90;;;;;;4988500;28;20690;-65
2023/07/12 09:09:23;;;;;;;14.25;6.57;;;19.60;99.90;;;;;;5009572;28;20745;-64
2023/07/12 09:11:49;;;;;;;12.77;6.35;;;19.80;99.90;;;;;;4988746;28;20416;-65
2023/07/12 09:14:20;;;;;;;12.67;6.77;;;19.90;99.90;;;;;;4991917;28;20432;-64
2023/07/12 09:16:54;;;;;;;13.38;6.70;;;20.00;99.90;;;;;;5006153;28;20388;-63
2023/07/12 09:19:23;;;;;;;14.37;6.80;;;20.10;99.90;;;;;;4995621;28;20462;-63
2023/07/12 09:22:08;;;;;;;14.98;6.63;;;20.10;99.90;;;;;;5008732;28;20922;-64
2023/07/12 09:24:43;;;;;;;12.10;5.80;;;20.20;99.90;;;;;;4999258;28;20890;-62
2023/07/12 09:27:18;;;;;;;13.23;6.10;;;20.20;99.90;;;;;;4988203;28;20415;-66
2023/07/12 09:29:44;;;;;;;12.07;6.18;;;20.20;99.90;;;;;;5007520;28;20429;-63
2023/07/12 09:32:18;;;;;;;11.50;6.20;;;20.20;99.90;;;;;;4995040;28;20437;-64
2023/07/12 09:34:46;;;;;;;10.55;5.95;;;20.10;99.90;;;;;;5005299;28;20917;-64
2023/07/12 09:37:15;;;;;;;14.48;6.00;;;20.00;99.90;;;;;;5005901;28;20399;-63
2023/07/12 09:39:40;;;;;;;12.68;6.00;;;19.90;99.90;;;;;;4972391;28;20444;-63
2023/07/12 09:42:10;;;;;;;12.45;5.90;;;19.80;99.90;;;;;;4987091;28;20522;-63
2023/07/12 09:44:36;;;;;;;12.95;5.63;;;19.80;99.90;;;;;;5015310;28;20762;-63
2023/07/12 09:47:42;;;;;;;14.93;5.90;;;19.90;99.90;;;;;;5005300;28;20409;-64
2023/07/12 09:50:28;;;;;;;13.95;5.55;;;19.90;99.90;;;;;;5029905;28;20445;-63
2023/07/12 09:53:15;;;;;;;11.35;5.40;;;19.90;99.90;;;;;;5008913;28;20409;-64
2023/07/12 09:56:04;;;;;;;13.27;5.33;;;19.90;99.90;;;;;;4991387;28;20527;-63
2023/07/12 09:58:48;;;;;;;16.50;6.03;;;20.00;99.90;;;;;;5008931;28;20405;-63
2023/07/12 10:01:39;;;;;;;14.70;5.40;;;20.20;99.90;;;;;;4996472;28;20415;-67
2023/07/12 10:04:39;;;;;;;13.38;5.45;;;20.30;99.90;;;;;;5008076;28;20415;-64
2023/07/12 10:07:23;;;;;;;14.55;5.32;;;20.30;99.90;;;;;;4985365;28;20415;-64
2023/07/12 10:09:51;;;;;;;10.73;4.07;;;20.30;99.90;;;;;;4991426;28;20401;-64
2023/07/12 10:12:44;;;;;;;11.82;4.55;;;20.30;99.90;;;;;;5007547;28;20910;-64
2023/07/12 10:15:14;;;;;;;8.27;3.42;;;20.30;99.90;;;;;;4974524;28;20488;-65
2023/07/12 10:17:43;;;;;;;9.82;3.60;;;20.40;99.90;;;;;;4992528;28;20408;-64
2023/07/12 10:20:22;;;;;;;9.40;3.60;;;20.70;99.90;;;;;;4976690;28;20405;-64
2023/07/12 10:22:51;;;;;;;8.65;3.10;;;21.00;99.90;;;;;;5008045;28;20470;-64
2023/07/12 10:25:22;;;;;;;10.63;3.33;;;21.30;99.90;;;;;;5007150;28;20444;-64
2023/07/12 10:27:58;;;;;;;8.75;3.30;;;21.50;99.90;;;;;;5008282;28;20444;-64
2023/07/12 10:30:26;;;;;;;9.95;3.22;;;21.90;99.90;;;;;;5000940;28;20834;-65
2023/07/12 10:33:20;;;;;;;7.20;2.50;;;22.20;99.90;;;;;;5008328;28;20423;-65
2023/07/12 10:35:50;;;;;;;7.63;2.53;;;22.30;99.90;;;;;;4986272;28;20444;-64
2023/07/12 10:38:20;;;;;;;6.75;2.33;;;22.50;99.90;;;;;;5075899;28;20413;-64
2023/07/12 10:40:56;;;;;;;6.35;2.47;;;22.70;99.90;;;;;;4985711;28;20871;-65
2023/07/12 10:43:43;;;;;;;6.70;2.47;;;22.90;99.90;;;;;;5075521;28;20429;-64
2023/07/12 10:46:29;;;;;;;6.75;2.00;;;23.00;99.90;;;;;;4992497;28;20912;-64
2023/07/12 10:48:55;;;;;;;5.33;2.00;;;23.00;99.90;;;;;;5004302;28;20453;-65
2023/07/12 10:51:35;;;;;;;5.07;1.90;;;22.80;99.10;;;;;;5007931;28;20405;-64
2023/07/12 10:54:02;;;;;;;5.63;2.00;;;22.70;99.00;;;;;;5005699;28;20409;-64
2023/07/12 10:56:34;;;;;;;8.07;2.20;;;22.50;99.00;;;;;;5000160;28;20451;-65
2023/07/12 10:59:24;;;;;;;8.52;2.30;;;22.40;99.00;;;;;;5008080;28;20476;-64
2023/07/12 11:01:54;;;;;;;5.97;2.28;;;22.20;99.70;;;;;;4982509;28;20428;-65
2023/07/12 11:04:34;;;;;;;6.07;2.30;;;22.20;99.80;;;;;;5007925;28;20409;-65
2023/07/12 11:07:02;;;;;;;5.78;2.30;;;22.50;99.90;;;;;;5007685;28;20450;-64
2023/07/12 11:09:52;;;;;;;6.50;2.47;;;22.80;99.90;;;;;;4992396;28;20739;-64
2023/07/12 11:12:36;;;;;;;5.77;2.40;;;22.90;99.90;;;;;;4990358;28;20920;-65
2023/07/12 11:15:24;;;;;;;5.00;2.20;;;22.90;99.70;;;;;;5074589;28;20523;-65
2023/07/12 11:17:50;;;;;;;4.53;1.98;;;23.00;99.70;;;;;;5007759;28;20419;-65
2023/07/12 11:20:23;;;;;;;4.57;1.95;;;23.10;99.40;;;;;;5007627;28;20919;-65
2023/07/12 11:22:53;;;;;;;5.32;2.08;;;23.30;98.30;;;;;;5007675;28;20460;-65
2023/07/12 11:25:36;;;;;;;6.05;1.85;;;23.50;98.30;;;;;;5007361;28;20393;-65
2023/07/12 11:28:05;;;;;;;4.72;1.70;;;23.80;97.30;;;;;;5024907;28;20452;-65
2023/07/12 11:30:33;;;;;;;3.85;1.73;;;24.00;97.00;;;;;;5007436;28;20771;-65
2023/07/12 11:33:10;;;;;;;3.80;1.63;;;24.10;95.30;;;;;;5006944;28;20975;-65
2023/07/12 11:36:02;;;;;;;3.42;1.70;;;24.10;94.60;;;;;;5007157;28;20412;-65
2023/07/12 11:38:30;;;;;;;3.30;1.50;;;24.30;94.70;;;;;;5000192;28;21113;-65
2023/07/12 11:41:02;;;;;;;3.53;1.58;;;24.60;93.60;;;;;;5007307;28;20415;-65
2023/07/12 11:43:34;;;;;;;4.75;1.77;;;24.80;92.50;;;;;;4989098;28;20537;-65
2023/07/12 11:46:01;;;;;;;4.97;2.00;;;25.00;92.80;;;;;;5006907;28;20401;-65
2023/07/12 11:48:33;;;;;;;5.93;2.00;;;25.40;93.60;;;;;;5006234;28;20421;-65
2023/07/12 11:51:05;;;;;;;4.10;1.90;;;25.60;92.40;;;;;;5006920;28;20408;-65
2023/07/12 11:53:30;;;;;;;3.58;1.80;;;25.70;92.30;;;;;;5006299;28;20489;-65
2023/07/12 11:55:56;;;;;;;4.63;1.90;;;25.80;92.30;;;;;;5006460;28;20464;-65
2023/07/12 11:58:24;;;;;;;3.65;1.50;;;25.90;92.10;;;;;;4989121;28;20497;-65
2023/07/12 12:00:53;;;;;;;4.93;1.63;;;26.00;89.90;;;;;;4989620;28;20409;-65
2023/07/12 12:03:19;;;;;;;4.70;1.80;;;26.00;90.20;;;;;;5006252;28;20436;-65
2023/07/12 12:05:46;;;;;;;4.63;1.80;;;25.80;88.00;;;;;;5007186;28;20393;-65
2023/07/12 12:08:18;;;;;;;4.97;1.90;;;25.80;87.50;;;;;;5006621;28;20450;-65
2023/07/12 12:10:48;;;;;;;4.75;1.80;;;25.70;88.20;;;;;;4989249;28;20421;-65
2023/07/12 12:13:19;;;;;;;4.35;1.98;;;25.60;88.20;;;;;;4976041;28;20407;-65
2023/07/12 12:15:59;;;;;;;3.83;1.67;;;25.60;86.70;;;;;;5006887;28;20460;-65
2023/07/12 12:18:25;;;;;;;4.45;1.70;;;25.50;85.70;;;;;;5066415;28;20420;-65
2023/07/12 12:21:03;;;;;;;3.83;1.70;;;25.50;86.50;;;;;;5007214;28;20405;-65
2023/07/12 12:23:37;;;;;;;5.95;2.00;;;25.50;82.20;;;;;;5006210;28;20443;-65
2023/07/12 12:26:19;;;;;;;5.00;1.85;;;25.40;83.30;;;;;;5006878;28;20748;-65
2023/07/12 12:28:55;;;;;;;5.50;1.90;;;25.30;83.40;;;;;;5001652;28;20397;-65
2023/07/12 12:31:23;;;;;;;4.45;1.63;;;25.30;85.50;;;;;;4974233;28;20443;-65
2023/07/12 12:33:57;;;;;;;3.38;1.52;;;25.40;87.40;;;;;;5006580;28;20401;-65
2023/07/12 12:36:30;;;;;;;2.83;1.30;;;25.60;85.50;;;;;;5004091;28;20407;-65
2023/07/12 12:39:05;;;;;;;2.65;1.50;;;25.90;82.90;;;;;;4989322;28;20439;-65
2023/07/12 12:41:38;;;;;;;3.80;1.50;;;26.00;81.80;;;;;;4986148;28;20979;-65
2023/07/12 12:44:15;;;;;;;3.92;1.40;;;26.40;82.30;;;;;;5006152;28;20532;-65
2023/07/12 12:46:41;;;;;;;3.00;1.55;;;26.10;79.20;;;;;;5073513;28;20415;-65
2023/07/12 12:49:21;;;;;;;4.15;1.42;;;26.10;81.90;;;;;;5006241;28;20548;-65
2023/07/12 12:51:49;;;;;;;2.40;1.40;;;26.10;80.30;;;;;;5005338;28;20808;-65